sensor_id;sensor_type;location;lat;lon;timestamp;P1;durP1;ratioP1;P2;durP2;ratioP2
59424;SDS011;45231;44.826;20.312;2023-04-03T00:00:17;12.37;;;8.87;;
59424;SDS011;45231;44.826;20.312;2023-04-03T00:02:43;11.75;;;7.75;;
59424;SDS011;45231;44.826;20.312;2023-04-03T00:05:09;11.55;;;7.43;;
59424;SDS011;45231;44.826;20.312;2023-04-03T00:07:35;10.03;;;6.97;;
59424;SDS011;45231;44.826;20.312;2023-04-03T00:10:01;10.03;;;6.40;;
59424;SDS011;45231;44.826;20.312;2023-04-03T00:12:28;9.02;;;6.00;;
59424;SDS011;45231;44.826;20.312;2023-04-03T00:14:54;13.48;;;6.05;;
59424;SDS011;45231;44.826;20.312;2023-04-03T00:17:20;10.20;;;5.80;;
59424;SDS011;45231;44.826;20.312;2023-04-03T00:19:46;8.67;;;5.90;;
59424;SDS011;45231;44.826;20.312;2023-04-03T00:22:12;10.23;;;6.23;;
59424;SDS011;45231;44.826;20.312;2023-04-03T00:24:38;9.40;;;6.27;;
59424;SDS011;45231;44.826;20.312;2023-04-03T00:27:04;10.40;;;6.45;;
59424;SDS011;45231;44.826;20.312;2023-04-03T00:29:30;9.40;;;6.30;;
59424;SDS011;45231;44.826;20.312;2023-04-03T00:31:56;10.23;;;6.40;;
59424;SDS011;45231;44.826;20.312;2023-04-03T00:34:22;9.63;;;6.03;;
59424;SDS011;45231;44.826;20.312;2023-04-03T00:36:48;9.13;;;6.10;;
59424;SDS011;45231;44.826;20.312;2023-04-03T00:39:14;10.30;;;6.00;;
59424;SDS011;45231;44.826;20.312;2023-04-03T00:41:40;8.80;;;5.90;;
59424;SDS011;45231;44.826;20.312;2023-04-03T00:45:22;9.30;;;5.97;;
59424;SDS011;45231;44.826;20.312;2023-04-03T00:47:10;9.27;;;6.07;;
59424;SDS011;45231;44.826;20.312;2023-04-03T00:49:37;9.70;;;6.32;;
59424;SDS011;45231;44.826;20.312;2023-04-03T00:52:05;9.85;;;6.82;;
59424;SDS011;45231;44.826;20.312;2023-04-03T00:54:31;10.50;;;6.45;;
59424;SDS011;45231;44.826;20.312;2023-04-03T00:56:58;9.50;;;6.38;;
59424;SDS011;45231;44.826;20.312;2023-04-03T00:59:25;10.90;;;7.30;;
59424;SDS011;45231;44.826;20.312;2023-04-03T01:01:53;11.23;;;7.70;;
59424;SDS011;45231;44.826;20.312;2023-04-03T01:04:30;12.55;;;8.27;;
59424;SDS011;45231;44.826;20.312;2023-04-03T01:06:57;17.42;;;9.27;;
59424;SDS011;45231;44.826;20.312;2023-04-03T01:09:24;15.32;;;9.07;;
59424;SDS011;45231;44.826;20.312;2023-04-03T01:11:51;12.30;;;8.55;;
59424;SDS011;45231;44.826;20.312;2023-04-03T01:14:17;14.07;;;7.73;;
59424;SDS011;45231;44.826;20.312;2023-04-03T01:16:51;13.80;;;8.00;;
59424;SDS011;45231;44.826;20.312;2023-04-03T01:19:17;15.75;;;8.90;;
59424;SDS011;45231;44.826;20.312;2023-04-03T01:26:59;13.30;;;8.68;;
59424;SDS011;45231;44.826;20.312;2023-04-03T01:29:27;14.23;;;8.57;;
59424;SDS011;45231;44.826;20.312;2023-04-03T01:31:54;14.37;;;9.60;;
59424;SDS011;45231;44.826;20.312;2023-04-03T01:34:21;13.85;;;9.38;;
59424;SDS011;45231;44.826;20.312;2023-04-03T01:36:47;13.88;;;8.73;;
59424;SDS011;45231;44.826;20.312;2023-04-03T01:39:13;14.75;;;9.75;;
59424;SDS011;45231;44.826;20.312;2023-04-03T01:41:39;14.18;;;9.77;;
59424;SDS011;45231;44.826;20.312;2023-04-03T01:44:06;14.23;;;8.85;;
59424;SDS011;45231;44.826;20.312;2023-04-03T01:46:32;17.80;;;9.80;;
59424;SDS011;45231;44.826;20.312;2023-04-03T01:48:58;15.85;;;9.52;;
59424;SDS011;45231;44.826;20.312;2023-04-03T01:51:24;14.77;;;9.32;;
59424;SDS011;45231;44.826;20.312;2023-04-03T01:53:50;17.03;;;9.33;;
59424;SDS011;45231;44.826;20.312;2023-04-03T01:56:16;14.83;;;9.67;;
59424;SDS011;45231;44.826;20.312;2023-04-03T01:58:42;13.43;;;8.47;;
59424;SDS011;45231;44.826;20.312;2023-04-03T02:01:08;15.87;;;9.67;;
59424;SDS011;45231;44.826;20.312;2023-04-03T02:03:35;18.67;;;8.80;;
59424;SDS011;45231;44.826;20.312;2023-04-03T02:06:01;15.32;;;10.23;;
59424;SDS011;45231;44.826;20.312;2023-04-03T02:08:27;13.23;;;9.53;;
59424;SDS011;45231;44.826;20.312;2023-04-03T02:10:53;16.45;;;10.30;;
59424;SDS011;45231;44.826;20.312;2023-04-03T02:13:19;15.87;;;10.17;;
59424;SDS011;45231;44.826;20.312;2023-04-03T02:15:45;17.20;;;9.87;;
59424;SDS011;45231;44.826;20.312;2023-04-03T02:18:12;14.48;;;9.07;;
59424;SDS011;45231;44.826;20.312;2023-04-03T02:20:38;14.98;;;9.52;;
59424;SDS011;45231;44.826;20.312;2023-04-03T02:23:05;14.30;;;9.53;;
59424;SDS011;45231;44.826;20.312;2023-04-03T02:25:31;16.70;;;10.50;;
59424;SDS011;45231;44.826;20.312;2023-04-03T02:27:57;16.80;;;10.57;;
59424;SDS011;45231;44.826;20.312;2023-04-03T02:30:23;14.35;;;10.13;;
59424;SDS011;45231;44.826;20.312;2023-04-03T02:32:50;14.75;;;10.27;;
59424;SDS011;45231;44.826;20.312;2023-04-03T02:35:16;16.47;;;10.80;;
59424;SDS011;45231;44.826;20.312;2023-04-03T02:37:42;16.70;;;11.60;;
59424;SDS011;45231;44.826;20.312;2023-04-03T02:40:08;16.83;;;10.83;;
59424;SDS011;45231;44.826;20.312;2023-04-03T02:42:36;15.20;;;10.82;;
59424;SDS011;45231;44.826;20.312;2023-04-03T02:45:02;17.20;;;10.23;;
59424;SDS011;45231;44.826;20.312;2023-04-03T02:47:28;16.33;;;11.23;;
59424;SDS011;45231;44.826;20.312;2023-04-03T02:49:54;18.57;;;10.73;;
59424;SDS011;45231;44.826;20.312;2023-04-03T02:52:20;16.07;;;9.83;;
59424;SDS011;45231;44.826;20.312;2023-04-03T02:54:47;19.57;;;11.50;;
59424;SDS011;45231;44.826;20.312;2023-04-03T02:57:13;20.07;;;12.07;;
59424;SDS011;45231;44.826;20.312;2023-04-03T02:59:39;17.48;;;11.25;;
59424;SDS011;45231;44.826;20.312;2023-04-03T03:02:06;16.58;;;10.88;;
59424;SDS011;45231;44.826;20.312;2023-04-03T03:06:58;18.45;;;12.20;;
59424;SDS011;45231;44.826;20.312;2023-04-03T03:09:24;19.07;;;11.17;;
59424;SDS011;45231;44.826;20.312;2023-04-03T03:11:51;17.38;;;12.32;;
59424;SDS011;45231;44.826;20.312;2023-04-03T03:14:17;18.40;;;11.43;;
59424;SDS011;45231;44.826;20.312;2023-04-03T03:16:43;20.10;;;12.35;;
59424;SDS011;45231;44.826;20.312;2023-04-03T03:19:09;18.00;;;12.60;;
59424;SDS011;45231;44.826;20.312;2023-04-03T03:21:36;17.77;;;11.50;;
59424;SDS011;45231;44.826;20.312;2023-04-03T03:24:02;21.73;;;12.70;;
59424;SDS011;45231;44.826;20.312;2023-04-03T03:26:28;21.23;;;12.20;;
59424;SDS011;45231;44.826;20.312;2023-04-03T03:28:54;21.40;;;12.80;;
59424;SDS011;45231;44.826;20.312;2023-04-03T03:31:20;19.27;;;12.77;;
59424;SDS011;45231;44.826;20.312;2023-04-03T03:33:46;20.63;;;13.30;;
59424;SDS011;45231;44.826;20.312;2023-04-03T03:36:12;18.03;;;11.80;;
59424;SDS011;45231;44.826;20.312;2023-04-03T03:38:38;20.80;;;12.70;;
59424;SDS011;45231;44.826;20.312;2023-04-03T03:41:04;21.03;;;12.40;;
59424;SDS011;45231;44.826;20.312;2023-04-03T03:43:30;19.80;;;13.00;;
59424;SDS011;45231;44.826;20.312;2023-04-03T03:45:56;20.17;;;12.93;;
59424;SDS011;45231;44.826;20.312;2023-04-03T03:48:22;20.47;;;12.67;;
59424;SDS011;45231;44.826;20.312;2023-04-03T03:50:49;20.20;;;13.25;;
59424;SDS011;45231;44.826;20.312;2023-04-03T03:53:15;19.03;;;12.77;;
59424;SDS011;45231;44.826;20.312;2023-04-03T03:55:41;19.75;;;13.30;;
59424;SDS011;45231;44.826;20.312;2023-04-03T03:58:07;21.80;;;13.07;;
59424;SDS011;45231;44.826;20.312;2023-04-03T04:00:34;21.67;;;13.03;;
59424;SDS011;45231;44.826;20.312;2023-04-03T04:03:00;19.92;;;13.45;;
59424;SDS011;45231;44.826;20.312;2023-04-03T04:05:26;20.97;;;12.77;;
59424;SDS011;45231;44.826;20.312;2023-04-03T04:07:52;18.60;;;12.90;;
59424;SDS011;45231;44.826;20.312;2023-04-03T04:10:18;20.98;;;13.88;;
59424;SDS011;45231;44.826;20.312;2023-04-03T04:12:45;20.80;;;13.77;;
59424;SDS011;45231;44.826;20.312;2023-04-03T04:15:11;22.07;;;13.63;;
59424;SDS011;45231;44.826;20.312;2023-04-03T04:17:37;23.03;;;14.27;;
59424;SDS011;45231;44.826;20.312;2023-04-03T04:20:03;21.10;;;13.83;;
59424;SDS011;45231;44.826;20.312;2023-04-03T04:22:30;19.95;;;13.52;;
59424;SDS011;45231;44.826;20.312;2023-04-03T04:24:56;21.17;;;13.77;;
59424;SDS011;45231;44.826;20.312;2023-04-03T04:27:22;24.75;;;14.50;;
59424;SDS011;45231;44.826;20.312;2023-04-03T04:29:48;27.23;;;14.60;;
59424;SDS011;45231;44.826;20.312;2023-04-03T04:32:14;26.05;;;14.65;;
59424;SDS011;45231;44.826;20.312;2023-04-03T04:34:40;20.23;;;13.40;;
59424;SDS011;45231;44.826;20.312;2023-04-03T04:37:06;22.17;;;13.30;;
59424;SDS011;45231;44.826;20.312;2023-04-03T04:39:33;21.07;;;15.07;;
59424;SDS011;45231;44.826;20.312;2023-04-03T04:41:59;21.52;;;14.73;;
59424;SDS011;45231;44.826;20.312;2023-04-03T04:44:25;23.50;;;15.10;;
59424;SDS011;45231;44.826;20.312;2023-04-03T04:46:51;22.33;;;15.37;;
59424;SDS011;45231;44.826;20.312;2023-04-03T04:49:17;23.35;;;15.18;;
59424;SDS011;45231;44.826;20.312;2023-04-03T04:51:43;25.67;;;14.80;;
59424;SDS011;45231;44.826;20.312;2023-04-03T04:54:11;23.55;;;16.00;;
59424;SDS011;45231;44.826;20.312;2023-04-03T04:56:37;22.38;;;15.18;;
59424;SDS011;45231;44.826;20.312;2023-04-03T04:59:03;23.48;;;15.60;;
59424;SDS011;45231;44.826;20.312;2023-04-03T05:01:29;22.13;;;15.10;;
59424;SDS011;45231;44.826;20.312;2023-04-03T05:03:55;23.33;;;16.07;;
59424;SDS011;45231;44.826;20.312;2023-04-03T05:06:21;23.73;;;16.50;;
59424;SDS011;45231;44.826;20.312;2023-04-03T05:08:47;23.80;;;16.60;;
59424;SDS011;45231;44.826;20.312;2023-04-03T05:11:13;23.83;;;16.23;;
59424;SDS011;45231;44.826;20.312;2023-04-03T05:13:40;23.17;;;15.83;;
59424;SDS011;45231;44.826;20.312;2023-04-03T05:16:06;24.30;;;15.50;;
59424;SDS011;45231;44.826;20.312;2023-04-03T05:18:32;27.00;;;16.80;;
59424;SDS011;45231;44.826;20.312;2023-04-03T05:20:58;23.10;;;15.90;;
59424;SDS011;45231;44.826;20.312;2023-04-03T05:23:24;23.53;;;16.97;;
59424;SDS011;45231;44.826;20.312;2023-04-03T05:25:50;24.40;;;16.90;;
59424;SDS011;45231;44.826;20.312;2023-04-03T05:28:16;23.60;;;16.80;;
59424;SDS011;45231;44.826;20.312;2023-04-03T05:30:42;25.67;;;17.50;;
59424;SDS011;45231;44.826;20.312;2023-04-03T05:33:08;24.27;;;16.50;;
59424;SDS011;45231;44.826;20.312;2023-04-03T05:35:36;28.25;;;17.17;;
59424;SDS011;45231;44.826;20.312;2023-04-03T05:38:05;25.92;;;16.80;;
59424;SDS011;45231;44.826;20.312;2023-04-03T05:40:31;24.43;;;16.30;;
59424;SDS011;45231;44.826;20.312;2023-04-03T05:42:57;26.20;;;16.53;;
59424;SDS011;45231;44.826;20.312;2023-04-03T05:45:23;23.97;;;16.40;;
59424;SDS011;45231;44.826;20.312;2023-04-03T05:47:49;27.17;;;18.30;;
59424;SDS011;45231;44.826;20.312;2023-04-03T05:50:15;24.58;;;16.75;;
59424;SDS011;45231;44.826;20.312;2023-04-03T05:52:42;23.00;;;17.20;;
59424;SDS011;45231;44.826;20.312;2023-04-03T05:55:10;25.45;;;16.30;;
59424;SDS011;45231;44.826;20.312;2023-04-03T05:57:36;24.23;;;16.37;;
59424;SDS011;45231;44.826;20.312;2023-04-03T06:00:03;23.80;;;16.00;;
59424;SDS011;45231;44.826;20.312;2023-04-03T06:02:30;23.17;;;15.95;;
59424;SDS011;45231;44.826;20.312;2023-04-03T06:04:56;24.13;;;15.73;;
59424;SDS011;45231;44.826;20.312;2023-04-03T06:07:24;23.60;;;16.03;;
59424;SDS011;45231;44.826;20.312;2023-04-03T06:09:53;21.30;;;14.65;;
59424;SDS011;45231;44.826;20.312;2023-04-03T06:12:19;25.03;;;15.10;;
59424;SDS011;45231;44.826;20.312;2023-04-03T06:14:46;25.63;;;15.63;;
59424;SDS011;45231;44.826;20.312;2023-04-03T06:17:12;23.45;;;15.40;;
59424;SDS011;45231;44.826;20.312;2023-04-03T06:19:39;23.00;;;14.50;;
59424;SDS011;45231;44.826;20.312;2023-04-03T06:24:32;21.23;;;13.18;;
59424;SDS011;45231;44.826;20.312;2023-04-03T06:26:58;23.83;;;13.88;;
59424;SDS011;45231;44.826;20.312;2023-04-03T06:29:24;21.23;;;14.03;;
59424;SDS011;45231;44.826;20.312;2023-04-03T06:31:50;27.20;;;14.13;;
59424;SDS011;45231;44.826;20.312;2023-04-03T06:34:17;16.33;;;9.93;;
59424;SDS011;45231;44.826;20.312;2023-04-03T06:36:43;19.67;;;11.70;;
59424;SDS011;45231;44.826;20.312;2023-04-03T06:41:35;10.65;;;6.30;;
59424;SDS011;45231;44.826;20.312;2023-04-03T06:44:01;11.05;;;5.45;;
59424;SDS011;45231;44.826;20.312;2023-04-03T06:46:28;7.57;;;4.63;;
59424;SDS011;45231;44.826;20.312;2023-04-03T06:48:54;8.90;;;5.07;;
59424;SDS011;45231;44.826;20.312;2023-04-03T06:51:22;11.63;;;5.45;;
59424;SDS011;45231;44.826;20.312;2023-04-03T06:53:49;8.68;;;4.82;;
59424;SDS011;45231;44.826;20.312;2023-04-03T06:58:41;10.23;;;5.38;;
59424;SDS011;45231;44.826;20.312;2023-04-03T07:01:08;9.43;;;5.57;;
59424;SDS011;45231;44.826;20.312;2023-04-03T07:06:00;10.43;;;4.95;;
59424;SDS011;45231;44.826;20.312;2023-04-03T07:08:26;9.73;;;5.43;;
59424;SDS011;45231;44.826;20.312;2023-04-03T07:10:53;8.68;;;4.88;;
59424;SDS011;45231;44.826;20.312;2023-04-03T07:13:19;7.75;;;4.85;;
59424;SDS011;45231;44.826;20.312;2023-04-03T07:15:46;8.57;;;4.43;;
59424;SDS011;45231;44.826;20.312;2023-04-03T07:18:12;7.40;;;4.73;;
59424;SDS011;45231;44.826;20.312;2023-04-03T07:20:38;8.88;;;4.18;;
59424;SDS011;45231;44.826;20.312;2023-04-03T07:23:05;11.20;;;4.50;;
59424;SDS011;45231;44.826;20.312;2023-04-03T07:25:31;6.88;;;4.13;;
59424;SDS011;45231;44.826;20.312;2023-04-03T07:27:58;10.98;;;4.25;;
59424;SDS011;45231;44.826;20.312;2023-04-03T07:30:24;12.63;;;4.33;;
59424;SDS011;45231;44.826;20.312;2023-04-03T07:32:51;7.78;;;4.15;;
59424;SDS011;45231;44.826;20.312;2023-04-03T07:35:17;7.17;;;3.73;;
59424;SDS011;45231;44.826;20.312;2023-04-03T07:37:44;9.63;;;3.88;;
59424;SDS011;45231;44.826;20.312;2023-04-03T07:40:10;10.33;;;4.40;;
59424;SDS011;45231;44.826;20.312;2023-04-03T07:42:36;7.97;;;4.07;;
59424;SDS011;45231;44.826;20.312;2023-04-03T07:45:02;7.43;;;3.80;;
59424;SDS011;45231;44.826;20.312;2023-04-03T07:47:29;7.95;;;4.05;;
59424;SDS011;45231;44.826;20.312;2023-04-03T07:49:56;8.15;;;4.25;;
59424;SDS011;45231;44.826;20.312;2023-04-03T07:52:22;7.00;;;3.90;;
59424;SDS011;45231;44.826;20.312;2023-04-03T07:54:48;7.40;;;4.05;;
59424;SDS011;45231;44.826;20.312;2023-04-03T07:57:14;7.07;;;3.63;;
59424;SDS011;45231;44.826;20.312;2023-04-03T08:02:10;5.97;;;3.40;;
59424;SDS011;45231;44.826;20.312;2023-04-03T08:04:36;6.75;;;3.63;;
59424;SDS011;45231;44.826;20.312;2023-04-03T08:07:03;6.30;;;3.43;;
59424;SDS011;45231;44.826;20.312;2023-04-03T08:09:31;6.17;;;3.37;;
59424;SDS011;45231;44.826;20.312;2023-04-03T08:11:58;6.45;;;3.60;;
59424;SDS011;45231;44.826;20.312;2023-04-03T08:14:24;6.35;;;3.58;;
59424;SDS011;45231;44.826;20.312;2023-04-03T08:16:50;7.00;;;3.20;;
59424;SDS011;45231;44.826;20.312;2023-04-03T08:19:16;6.18;;;3.47;;
59424;SDS011;45231;44.826;20.312;2023-04-03T08:21:43;6.53;;;3.63;;
59424;SDS011;45231;44.826;20.312;2023-04-03T08:24:10;7.82;;;3.42;;
59424;SDS011;45231;44.826;20.312;2023-04-03T08:26:36;6.80;;;3.58;;
59424;SDS011;45231;44.826;20.312;2023-04-03T08:29:02;10.13;;;3.20;;
59424;SDS011;45231;44.826;20.312;2023-04-03T08:31:29;6.53;;;3.60;;
59424;SDS011;45231;44.826;20.312;2023-04-03T08:33:56;8.00;;;3.42;;
59424;SDS011;45231;44.826;20.312;2023-04-03T08:36:27;8.23;;;3.80;;
59424;SDS011;45231;44.826;20.312;2023-04-03T08:38:53;9.30;;;4.38;;
59424;SDS011;45231;44.826;20.312;2023-04-03T08:46:13;7.38;;;3.30;;
59424;SDS011;45231;44.826;20.312;2023-04-03T08:48:41;7.10;;;3.70;;
59424;SDS011;45231;44.826;20.312;2023-04-03T08:51:14;8.68;;;3.78;;
59424;SDS011;45231;44.826;20.312;2023-04-03T08:53:57;6.55;;;3.95;;
59424;SDS011;45231;44.826;20.312;2023-04-03T08:56:27;7.82;;;4.20;;
59424;SDS011;45231;44.826;20.312;2023-04-03T08:58:58;6.68;;;3.70;;
59424;SDS011;45231;44.826;20.312;2023-04-03T09:03:58;7.18;;;3.47;;
59424;SDS011;45231;44.826;20.312;2023-04-03T09:06:27;7.10;;;3.85;;
59424;SDS011;45231;44.826;20.312;2023-04-03T09:19:38;6.03;;;3.50;;
59424;SDS011;45231;44.826;20.312;2023-04-03T09:21:38;8.57;;;3.78;;
59424;SDS011;45231;44.826;20.312;2023-04-03T09:24:07;6.55;;;3.30;;
59424;SDS011;45231;44.826;20.312;2023-04-03T09:26:36;8.73;;;3.83;;
59424;SDS011;45231;44.826;20.312;2023-04-03T09:29:05;6.05;;;3.20;;
59424;SDS011;45231;44.826;20.312;2023-04-03T09:31:36;5.75;;;3.30;;
59424;SDS011;45231;44.826;20.312;2023-04-03T09:34:05;6.32;;;3.40;;
59424;SDS011;45231;44.826;20.312;2023-04-03T09:36:46;7.57;;;3.90;;
59424;SDS011;45231;44.826;20.312;2023-04-03T09:39:14;5.78;;;2.97;;
59424;SDS011;45231;44.826;20.312;2023-04-03T09:41:41;10.90;;;3.70;;
59424;SDS011;45231;44.826;20.312;2023-04-03T09:44:21;6.35;;;3.42;;
59424;SDS011;45231;44.826;20.312;2023-04-03T09:46:48;6.40;;;3.25;;
59424;SDS011;45231;44.826;20.312;2023-04-03T09:49:15;6.47;;;3.60;;
59424;SDS011;45231;44.826;20.312;2023-04-03T09:51:41;6.60;;;3.30;;
59424;SDS011;45231;44.826;20.312;2023-04-03T09:56:52;6.93;;;3.88;;
59424;SDS011;45231;44.826;20.312;2023-04-03T09:59:20;6.50;;;3.83;;
59424;SDS011;45231;44.826;20.312;2023-04-03T10:01:57;6.90;;;3.20;;
59424;SDS011;45231;44.826;20.312;2023-04-03T10:04:23;6.20;;;3.38;;
59424;SDS011;45231;44.826;20.312;2023-04-03T10:06:51;5.80;;;2.78;;
59424;SDS011;45231;44.826;20.312;2023-04-03T10:09:30;5.05;;;2.80;;
59424;SDS011;45231;44.826;20.312;2023-04-03T10:14:27;6.38;;;3.60;;
59424;SDS011;45231;44.826;20.312;2023-04-03T10:17:02;6.95;;;3.38;;
59424;SDS011;45231;44.826;20.312;2023-04-03T10:22:15;5.97;;;3.30;;
59424;SDS011;45231;44.826;20.312;2023-04-03T10:24:50;5.85;;;3.17;;
59424;SDS011;45231;44.826;20.312;2023-04-03T10:27:20;7.63;;;3.65;;
59424;SDS011;45231;44.826;20.312;2023-04-03T10:29:51;7.50;;;3.42;;
59424;SDS011;45231;44.826;20.312;2023-04-03T10:32:35;6.25;;;3.55;;
59424;SDS011;45231;44.826;20.312;2023-04-03T10:35:24;8.15;;;4.00;;
59424;SDS011;45231;44.826;20.312;2023-04-03T10:37:55;6.72;;;4.03;;
59424;SDS011;45231;44.826;20.312;2023-04-03T10:40:33;5.60;;;3.05;;
59424;SDS011;45231;44.826;20.312;2023-04-03T10:48:22;7.03;;;3.80;;
59424;SDS011;45231;44.826;20.312;2023-04-03T10:51:00;7.25;;;3.78;;
59424;SDS011;45231;44.826;20.312;2023-04-03T10:53:31;6.07;;;3.35;;
59424;SDS011;45231;44.826;20.312;2023-04-03T11:01:38;5.82;;;2.92;;
59424;SDS011;45231;44.826;20.312;2023-04-03T11:04:05;6.57;;;3.30;;
59424;SDS011;45231;44.826;20.312;2023-04-03T11:06:34;6.35;;;2.92;;
59424;SDS011;45231;44.826;20.312;2023-04-03T11:09:07;6.20;;;3.10;;
59424;SDS011;45231;44.826;20.312;2023-04-03T11:11:37;5.97;;;3.17;;
59424;SDS011;45231;44.826;20.312;2023-04-03T11:14:13;7.28;;;2.90;;
59424;SDS011;45231;44.826;20.312;2023-04-03T11:16:47;5.35;;;2.67;;
59424;SDS011;45231;44.826;20.312;2023-04-03T11:21:47;8.25;;;3.00;;
59424;SDS011;45231;44.826;20.312;2023-04-03T11:24:22;4.85;;;2.50;;
59424;SDS011;45231;44.826;20.312;2023-04-03T11:26:50;6.22;;;2.70;;
59424;SDS011;45231;44.826;20.312;2023-04-03T11:29:28;6.03;;;2.58;;
59424;SDS011;45231;44.826;20.312;2023-04-03T11:32:06;4.72;;;2.60;;
59424;SDS011;45231;44.826;20.312;2023-04-03T11:34:37;5.65;;;3.08;;
59424;SDS011;45231;44.826;20.312;2023-04-03T11:37:29;5.80;;;2.83;;
59424;SDS011;45231;44.826;20.312;2023-04-03T11:40:00;6.43;;;2.80;;
59424;SDS011;45231;44.826;20.312;2023-04-03T11:47:44;5.68;;;3.20;;
59424;SDS011;45231;44.826;20.312;2023-04-03T11:52:56;8.45;;;2.90;;
59424;SDS011;45231;44.826;20.312;2023-04-03T12:18:56;6.70;;;3.17;;
59424;SDS011;45231;44.826;20.312;2023-04-03T12:37:07;8.90;;;3.28;;
59424;SDS011;45231;44.826;20.312;2023-04-03T12:48:00;8.07;;;3.40;;
59424;SDS011;45231;44.826;20.312;2023-04-03T12:50:28;6.22;;;3.25;;
59424;SDS011;45231;44.826;20.312;2023-04-03T12:55:24;7.20;;;3.75;;
59424;SDS011;45231;44.826;20.312;2023-04-03T12:57:51;7.57;;;4.03;;
59424;SDS011;45231;44.826;20.312;2023-04-03T13:02:52;9.23;;;3.63;;
59424;SDS011;45231;44.826;20.312;2023-04-03T13:05:19;8.73;;;3.67;;
59424;SDS011;45231;44.826;20.312;2023-04-03T13:07:48;6.22;;;2.72;;
59424;SDS011;45231;44.826;20.312;2023-04-03T13:10:16;9.02;;;3.95;;
59424;SDS011;45231;44.826;20.312;2023-04-03T13:12:52;6.15;;;3.55;;
59424;SDS011;45231;44.826;20.312;2023-04-03T13:17:44;8.60;;;3.80;;
59424;SDS011;45231;44.826;20.312;2023-04-03T13:23:10;5.35;;;3.17;;
59424;SDS011;45231;44.826;20.312;2023-04-03T13:25:35;7.05;;;4.10;;
59424;SDS011;45231;44.826;20.312;2023-04-03T13:28:02;6.75;;;4.20;;
59424;SDS011;45231;44.826;20.312;2023-04-03T13:30:30;10.27;;;5.50;;
59424;SDS011;45231;44.826;20.312;2023-04-03T13:32:58;6.72;;;3.97;;
59424;SDS011;45231;44.826;20.312;2023-04-03T13:37:58;6.68;;;3.42;;
59424;SDS011;45231;44.826;20.312;2023-04-03T13:40:24;6.75;;;2.90;;
59424;SDS011;45231;44.826;20.312;2023-04-03T13:43:01;6.97;;;3.90;;
59424;SDS011;45231;44.826;20.312;2023-04-03T13:45:28;6.50;;;3.00;;
59424;SDS011;45231;44.826;20.312;2023-04-03T13:53:24;6.50;;;2.85;;
59424;SDS011;45231;44.826;20.312;2023-04-03T13:55:59;5.38;;;2.42;;
59424;SDS011;45231;44.826;20.312;2023-04-03T13:58:26;6.35;;;2.40;;
59424;SDS011;45231;44.826;20.312;2023-04-03T14:00:59;6.20;;;3.00;;
59424;SDS011;45231;44.826;20.312;2023-04-03T14:03:31;6.75;;;2.65;;
59424;SDS011;45231;44.826;20.312;2023-04-03T14:05:57;5.63;;;3.20;;
59424;SDS011;45231;44.826;20.312;2023-04-03T14:08:24;6.63;;;2.97;;
59424;SDS011;45231;44.826;20.312;2023-04-03T14:10:52;8.05;;;2.90;;
59424;SDS011;45231;44.826;20.312;2023-04-03T14:13:19;6.43;;;2.80;;
59424;SDS011;45231;44.826;20.312;2023-04-03T14:15:46;6.32;;;3.35;;
59424;SDS011;45231;44.826;20.312;2023-04-03T14:18:14;11.20;;;6.82;;
59424;SDS011;45231;44.826;20.312;2023-04-03T14:20:40;22.13;;;12.27;;
59424;SDS011;45231;44.826;20.312;2023-04-03T14:23:07;9.23;;;4.78;;
59424;SDS011;45231;44.826;20.312;2023-04-03T14:25:33;7.57;;;3.47;;
59424;SDS011;45231;44.826;20.312;2023-04-03T14:27:59;7.82;;;4.22;;
59424;SDS011;45231;44.826;20.312;2023-04-03T14:32:51;6.13;;;3.13;;
59424;SDS011;45231;44.826;20.312;2023-04-03T14:35:17;6.65;;;2.97;;
59424;SDS011;45231;44.826;20.312;2023-04-03T14:37:44;7.93;;;3.55;;
59424;SDS011;45231;44.826;20.312;2023-04-03T14:40:15;6.68;;;3.45;;
59424;SDS011;45231;44.826;20.312;2023-04-03T14:42:41;6.85;;;3.40;;
59424;SDS011;45231;44.826;20.312;2023-04-03T14:45:09;5.40;;;2.72;;
59424;SDS011;45231;44.826;20.312;2023-04-03T14:47:41;8.20;;;2.80;;
59424;SDS011;45231;44.826;20.312;2023-04-03T14:50:11;11.10;;;2.63;;
59424;SDS011;45231;44.826;20.312;2023-04-03T14:52:38;10.43;;;3.20;;
59424;SDS011;45231;44.826;20.312;2023-04-03T14:55:05;5.43;;;2.70;;
59424;SDS011;45231;44.826;20.312;2023-04-03T14:57:31;8.30;;;2.72;;
59424;SDS011;45231;44.826;20.312;2023-04-03T14:59:57;6.43;;;3.50;;
59424;SDS011;45231;44.826;20.312;2023-04-03T15:02:25;6.80;;;2.92;;
59424;SDS011;45231;44.826;20.312;2023-04-03T15:04:51;7.60;;;3.30;;
59424;SDS011;45231;44.826;20.312;2023-04-03T15:07:17;9.38;;;3.10;;
59424;SDS011;45231;44.826;20.312;2023-04-03T15:09:43;7.68;;;2.58;;
59424;SDS011;45231;44.826;20.312;2023-04-03T15:12:10;6.88;;;2.90;;
59424;SDS011;45231;44.826;20.312;2023-04-03T15:14:36;6.38;;;2.75;;
59424;SDS011;45231;44.826;20.312;2023-04-03T15:17:02;6.00;;;2.73;;
59424;SDS011;45231;44.826;20.312;2023-04-03T15:19:29;7.82;;;2.78;;
59424;SDS011;45231;44.826;20.312;2023-04-03T15:21:55;5.70;;;3.10;;
59424;SDS011;45231;44.826;20.312;2023-04-03T15:24:21;5.33;;;2.70;;
59424;SDS011;45231;44.826;20.312;2023-04-03T15:26:47;7.80;;;2.33;;
59424;SDS011;45231;44.826;20.312;2023-04-03T15:29:13;6.55;;;2.45;;
59424;SDS011;45231;44.826;20.312;2023-04-03T15:31:40;5.80;;;2.20;;
59424;SDS011;45231;44.826;20.312;2023-04-03T15:34:06;5.40;;;2.20;;
59424;SDS011;45231;44.826;20.312;2023-04-03T15:36:32;6.17;;;2.10;;
59424;SDS011;45231;44.826;20.312;2023-04-03T15:38:58;5.10;;;2.13;;
59424;SDS011;45231;44.826;20.312;2023-04-03T15:41:24;4.85;;;2.30;;
59424;SDS011;45231;44.826;20.312;2023-04-03T15:43:50;6.22;;;2.30;;
59424;SDS011;45231;44.826;20.312;2023-04-03T15:46:16;5.40;;;2.57;;
59424;SDS011;45231;44.826;20.312;2023-04-03T15:48:42;5.50;;;2.47;;
59424;SDS011;45231;44.826;20.312;2023-04-03T15:51:09;6.47;;;2.60;;
59424;SDS011;45231;44.826;20.312;2023-04-03T15:53:35;4.78;;;2.40;;
59424;SDS011;45231;44.826;20.312;2023-04-03T15:56:01;4.73;;;2.40;;
59424;SDS011;45231;44.826;20.312;2023-04-03T15:58:29;5.43;;;2.25;;
59424;SDS011;45231;44.826;20.312;2023-04-03T16:00:55;6.05;;;2.78;;
59424;SDS011;45231;44.826;20.312;2023-04-03T16:03:22;6.73;;;2.60;;
59424;SDS011;45231;44.826;20.312;2023-04-03T16:05:49;5.45;;;2.50;;
59424;SDS011;45231;44.826;20.312;2023-04-03T16:08:15;6.00;;;2.45;;
59424;SDS011;45231;44.826;20.312;2023-04-03T16:10:42;5.20;;;2.67;;
59424;SDS011;45231;44.826;20.312;2023-04-03T16:13:10;4.93;;;2.50;;
59424;SDS011;45231;44.826;20.312;2023-04-03T16:15:36;5.53;;;2.50;;
59424;SDS011;45231;44.826;20.312;2023-04-03T16:18:03;5.40;;;2.63;;
59424;SDS011;45231;44.826;20.312;2023-04-03T16:20:29;5.68;;;2.85;;
59424;SDS011;45231;44.826;20.312;2023-04-03T16:22:56;5.80;;;2.33;;
59424;SDS011;45231;44.826;20.312;2023-04-03T16:25:22;6.05;;;2.65;;
59424;SDS011;45231;44.826;20.312;2023-04-03T16:27:49;5.72;;;2.72;;
59424;SDS011;45231;44.826;20.312;2023-04-03T16:30:15;4.82;;;2.40;;
59424;SDS011;45231;44.826;20.312;2023-04-03T16:32:41;4.72;;;2.28;;
59424;SDS011;45231;44.826;20.312;2023-04-03T16:35:08;5.55;;;2.50;;
59424;SDS011;45231;44.826;20.312;2023-04-03T16:37:35;8.80;;;2.88;;
59424;SDS011;45231;44.826;20.312;2023-04-03T16:40:02;4.80;;;2.55;;